Time;durP1;ratioP1;P1;durP2;ratioP2;P2;SDS_P1;SDS_P2;PMS_P1;PMS_P2;Temp;Humidity;BMP_temperature;BMP_pressure;BME280_temperature;BME280_humidity;BME280_pressure;Samples;Min_cycle;Max_cycle;Signal;HPM_P1;HPM_P2
2023/07/05 00:00:05;;;;;;;0.80;0.80;;;;;;;;;;5042573;28;20462;-79
2023/07/05 00:02:33;;;;;;;2.50;1.03;;;;;;;;;;5040158;28;20431;-77
2023/07/05 00:05:00;;;;;;;0.70;0.70;;;;;;;;;;5054524;28;20464;-78
2023/07/05 00:07:27;;;;;;;0.80;0.70;;;;;;;;;;5044521;28;20469;-78
2023/07/05 00:09:53;;;;;;;0.77;0.70;;;;;;;;;;5040711;28;21490;-78
2023/07/05 00:12:20;;;;;;;1.73;1.63;;;;;;;;;;5046477;28;20473;-76
2023/07/05 00:14:47;;;;;;;0.70;0.70;;;;;;;;;;5042556;28;20439;-76
2023/07/05 00:17:13;;;;;;;0.90;0.80;;;;;;;;;;5045381;28;20542;-78
2023/07/05 00:19:41;;;;;;;0.80;0.73;;;;;;;;;;5048607;28;20542;-80
2023/07/05 00:22:08;;;;;;;0.80;0.70;;;;;;;;;;5041174;28;20474;-80
2023/07/05 00:24:34;;;;;;;0.70;0.60;;;;;;;;;;5047984;28;20512;-80
2023/07/05 00:27:01;;;;;;;1.00;1.00;;;;;;;;;;5042438;28;20448;-78
2023/07/05 00:29:28;;;;;;;0.70;0.70;;;;;;;;;;5046181;28;20478;-79
2023/07/05 00:31:55;;;;;;;0.70;0.70;;;;;;;;;;5040116;28;20914;-81
2023/07/05 00:34:21;;;;;;;0.97;0.97;;;;;;;;;;5042543;28;20438;-79
2023/07/05 00:36:49;;;;;;;0.90;0.90;;;;;;;;;;5040534;28;20481;-80
2023/07/05 00:39:16;;;;;;;1.20;1.10;;;;;;;;;;5044521;28;20455;-79
2023/07/05 00:41:43;;;;;;;0.70;0.70;;;;;;;;;;5030829;28;21063;-78
2023/07/05 00:44:11;;;;;;;0.77;0.77;;;;;;;;;;5044068;28;20438;-76
2023/07/05 00:46:41;;;;;;;2.33;1.47;;;;;;;;;;5028735;28;20436;-79
2023/07/05 00:49:11;;;;;;;0.80;0.70;;;;;;;;;;5042271;28;20946;-79
2023/07/05 00:51:40;;;;;;;0.80;0.80;;;;;;;;;;5040183;28;20490;-80
2023/07/05 00:54:09;;;;;;;0.90;0.80;;;;;;;;;;5021711;28;20446;-77
2023/07/05 00:56:38;;;;;;;0.70;0.70;;;;;;;;;;5044605;28;20987;-79
2023/07/05 00:59:05;;;;;;;0.70;0.70;;;;;;;;;;5041833;28;20995;-78
2023/07/05 01:01:31;;;;;;;1.60;1.30;;;;;;;;;;5047508;28;20538;-79
2023/07/05 01:04:00;;;;;;;0.70;0.70;;;;;;;;;;5039414;28;20446;-79
2023/07/05 01:06:27;;;;;;;0.90;0.90;;;;;;;;;;5025511;28;20459;-80
2023/07/05 01:08:54;;;;;;;0.77;0.70;;;;;;;;;;5041746;28;20824;-78
2023/07/05 01:11:27;;;;;;;0.90;0.90;;;;;;;;;;5038624;28;20551;-80
2023/07/05 01:13:56;;;;;;;0.80;0.80;;;;;;;;;;5042082;28;20430;-78
2023/07/05 01:16:29;;;;;;;0.80;0.80;;;;;;;;;;5048583;28;21095;-80
2023/07/05 01:18:59;;;;;;;0.70;0.70;;;;;;;;;;5041861;28;20433;-80
2023/07/05 01:21:30;;;;;;;0.70;0.60;;;;;;;;;;5045363;28;20455;-79
2023/07/05 01:24:09;;;;;;;0.70;0.60;;;;;;;;;;5043476;28;20446;-77
2023/07/05 01:27:04;;;;;;;0.70;0.70;;;;;;;;;;5040018;28;20526;-80
2023/07/05 01:29:45;;;;;;;1.07;0.83;;;;;;;;;;5040712;28;20454;-79
2023/07/05 01:32:14;;;;;;;0.70;0.60;;;;;;;;;;5037112;28;20475;-75
2023/07/05 01:34:43;;;;;;;0.70;0.70;;;;;;;;;;5046079;28;20875;-78
2023/07/05 01:37:20;;;;;;;0.73;0.70;;;;;;;;;;5048596;28;20492;-78
2023/07/05 01:39:46;;;;;;;0.70;0.60;;;;;;;;;;5046146;28;20452;-78
2023/07/05 01:42:13;;;;;;;0.70;0.70;;;;;;;;;;5045180;28;20554;-78
2023/07/05 01:44:40;;;;;;;0.70;0.60;;;;;;;;;;5025677;28;20466;-78
2023/07/05 01:47:10;;;;;;;0.70;0.70;;;;;;;;;;5046525;28;20508;-78
2023/07/05 01:49:45;;;;;;;0.70;0.63;;;;;;;;;;5038097;28;20522;-78
2023/07/05 01:52:16;;;;;;;0.70;0.70;;;;;;;;;;5043807;28;20508;-77
2023/07/05 01:54:46;;;;;;;0.80;0.80;;;;;;;;;;5040383;28;20511;-79
2023/07/05 01:57:16;;;;;;;0.70;0.70;;;;;;;;;;5034847;28;20557;-76
2023/07/05 01:59:45;;;;;;;0.70;0.70;;;;;;;;;;5044495;28;20507;-77
2023/07/05 02:02:14;;;;;;;1.93;1.83;;;;;;;;;;5045823;28;20480;-78
2023/07/05 02:04:43;;;;;;;0.70;0.60;;;;;;;;;;5050156;28;20440;-77
2023/07/05 02:07:10;;;;;;;0.70;0.70;;;;;;;;;;5040895;28;20810;-78
2023/07/05 02:09:38;;;;;;;0.80;0.80;;;;;;;;;;5045971;28;20438;-77
2023/07/05 02:12:05;;;;;;;0.80;0.80;;;;;;;;;;5030130;28;20449;-78
2023/07/05 02:14:32;;;;;;;1.00;1.00;;;;;;;;;;5046697;28;20435;-79
2023/07/05 02:16:59;;;;;;;0.70;0.60;;;;;;;;;;5047984;28;20568;-80
2023/07/05 02:19:25;;;;;;;0.80;0.80;;;;;;;;;;5043711;28;20483;-79
2023/07/05 02:21:54;;;;;;;0.63;0.60;;;;;;;;;;5035913;28;20499;-80
2023/07/05 02:24:21;;;;;;;0.70;0.70;;;;;;;;;;5046402;28;20517;-77
2023/07/05 02:26:47;;;;;;;0.70;0.70;;;;;;;;;;5053606;28;20921;-79
2023/07/05 02:29:14;;;;;;;0.97;0.97;;;;;;;;;;5033718;28;20513;-78
2023/07/05 02:31:42;;;;;;;0.80;0.80;;;;;;;;;;5046697;28;20444;-78
2023/07/05 02:34:10;;;;;;;0.70;0.60;;;;;;;;;;5043848;28;20486;-79
2023/07/05 02:36:38;;;;;;;1.37;1.27;;;;;;;;;;5045661;28;20494;-76
2023/07/05 02:39:05;;;;;;;1.03;0.93;;;;;;;;;;5048174;28;20529;-78
2023/07/05 02:41:32;;;;;;;0.70;0.60;;;;;;;;;;5050322;28;20475;-78
2023/07/05 02:43:59;;;;;;;0.77;0.77;;;;;;;;;;5048520;28;20958;-78
2023/07/05 02:46:26;;;;;;;0.80;0.80;;;;;;;;;;5041142;28;20436;-77
2023/07/05 02:48:58;;;;;;;0.73;0.73;;;;;;;;;;5025905;28;20442;-77
2023/07/05 02:51:26;;;;;;;1.10;1.00;;;;;;;;;;5033257;28;20974;-78
2023/07/05 02:53:54;;;;;;;0.70;0.70;;;;;;;;;;5047846;28;20645;-78
2023/07/05 02:56:22;;;;;;;0.63;0.60;;;;;;;;;;5044968;28;20456;-79
2023/07/05 02:58:49;;;;;;;1.07;0.97;;;;;;;;;;5029707;28;20485;-81
2023/07/05 03:01:15;;;;;;;0.73;0.73;;;;;;;;;;5044615;28;20436;-81
2023/07/05 03:03:42;;;;;;;0.70;0.70;;;;;;;;;;5050241;28;20467;-82
2023/07/05 03:06:09;;;;;;;0.70;0.70;;;;;;;;;;5043573;28;20446;-78
2023/07/05 03:08:35;;;;;;;0.70;0.70;;;;;;;;;;5049537;28;20488;-79
2023/07/05 03:11:02;;;;;;;0.70;0.70;;;;;;;;;;5047775;28;20868;-77
2023/07/05 03:13:32;;;;;;;0.70;0.60;;;;;;;;;;5044815;28;20513;-79
2023/07/05 03:15:59;;;;;;;0.80;0.80;;;;;;;;;;5046036;28;20441;-79
2023/07/05 03:18:26;;;;;;;0.80;0.70;;;;;;;;;;5047308;28;20906;-79
2023/07/05 03:20:53;;;;;;;0.70;0.60;;;;;;;;;;5042328;28;20462;-78
2023/07/05 03:23:20;;;;;;;0.70;0.70;;;;;;;;;;5051457;28;20541;-76
2023/07/05 03:25:53;;;;;;;0.70;0.63;;;;;;;;;;5046813;28;20533;-77
2023/07/05 03:28:20;;;;;;;0.70;0.70;;;;;;;;;;5040854;28;20540;-80
2023/07/05 03:30:54;;;;;;;0.70;0.60;;;;;;;;;;5048442;28;20478;-77
2023/07/05 03:33:22;;;;;;;0.70;0.70;;;;;;;;;;5038761;28;20449;-76
2023/07/05 03:35:52;;;;;;;1.67;1.57;;;;;;;;;;5039939;28;20437;-74
2023/07/05 03:38:19;;;;;;;0.70;0.70;;;;;;;;;;5044453;28;20482;-76
2023/07/05 03:40:46;;;;;;;0.80;0.80;;;;;;;;;;5041022;28;20454;-75
2023/07/05 03:43:13;;;;;;;0.70;0.70;;;;;;;;;;5048088;28;21012;-74
2023/07/05 03:45:39;;;;;;;0.70;0.67;;;;;;;;;;5044256;28;20444;-76
2023/07/05 03:48:07;;;;;;;0.80;0.80;;;;;;;;;;5044499;28;20431;-78
2023/07/05 03:50:34;;;;;;;0.70;0.70;;;;;;;;;;5041554;28;20858;-75
2023/07/05 03:53:01;;;;;;;0.73;0.70;;;;;;;;;;5044909;28;20500;-76
2023/07/05 03:55:28;;;;;;;0.70;0.70;;;;;;;;;;5039587;28;20437;-76
2023/07/05 03:57:56;;;;;;;0.80;0.80;;;;;;;;;;5047439;28;20487;-77
2023/07/05 04:00:22;;;;;;;0.70;0.70;;;;;;;;;;5049336;28;20446;-76
2023/07/05 04:02:49;;;;;;;0.70;0.70;;;;;;;;;;5039349;28;20437;-76
2023/07/05 04:05:17;;;;;;;0.70;0.70;;;;;;;;;;5039695;28;20805;-76
2023/07/05 04:07:44;;;;;;;0.70;0.70;;;;;;;;;;5042493;28;20467;-75
2023/07/05 04:10:11;;;;;;;0.70;0.63;;;;;;;;;;5040367;28;20490;-75
2023/07/05 04:12:39;;;;;;;0.70;0.67;;;;;;;;;;5045074;28;20470;-76
2023/07/05 04:15:06;;;;;;;0.70;0.70;;;;;;;;;;5038296;28;20917;-73
2023/07/05 04:17:32;;;;;;;0.70;0.70;;;;;;;;;;5044150;28;20445;-76
2023/07/05 04:19:59;;;;;;;0.80;0.70;;;;;;;;;;5049835;28;20444;-74
2023/07/05 04:22:30;;;;;;;0.70;0.60;;;;;;;;;;5039387;28;20464;-76
2023/07/05 04:24:56;;;;;;;0.80;0.70;;;;;;;;;;5041113;28;20433;-77
2023/07/05 04:27:23;;;;;;;0.70;0.70;;;;;;;;;;5041958;28;20486;-75
2023/07/05 04:29:49;;;;;;;0.70;0.60;;;;;;;;;;5040668;28;20451;-72
2023/07/05 04:32:16;;;;;;;0.70;0.70;;;;;;;;;;5039547;28;20437;-74
2023/07/05 04:34:42;;;;;;;0.70;0.70;;;;;;;;;;5043646;28;20439;-75
2023/07/05 04:37:09;;;;;;;0.70;0.70;;;;;;;;;;5042979;28;20459;-75
2023/07/05 04:39:37;;;;;;;0.80;0.80;;;;;;;;;;5045777;28;20872;-72
2023/07/05 04:42:03;;;;;;;0.70;0.60;;;;;;;;;;5040075;28;20847;-77
2023/07/05 04:44:30;;;;;;;0.70;0.60;;;;;;;;;;5042541;28;20445;-75
2023/07/05 04:46:57;;;;;;;0.77;0.77;;;;;;;;;;5048007;28;20527;-76
2023/07/05 04:49:25;;;;;;;0.70;0.70;;;;;;;;;;5043693;28;20800;-75
2023/07/05 04:51:52;;;;;;;0.70;0.70;;;;;;;;;;5048338;28;20482;-75
2023/07/05 04:54:19;;;;;;;0.70;0.60;;;;;;;;;;5040873;28;20443;-73
2023/07/05 04:56:47;;;;;;;0.73;0.70;;;;;;;;;;5046903;28;20445;-73
2023/07/05 04:59:13;;;;;;;0.70;0.60;;;;;;;;;;5041078;28;20473;-76
2023/07/05 05:01:40;;;;;;;0.70;0.70;;;;;;;;;;5050778;28;20446;-76
2023/07/05 05:04:07;;;;;;;0.77;0.77;;;;;;;;;;5044139;28;20476;-76
2023/07/05 05:06:33;;;;;;;0.70;0.70;;;;;;;;;;5042397;28;20953;-75
2023/07/05 05:09:01;;;;;;;0.70;0.70;;;;;;;;;;5044785;28;20429;-74
2023/07/05 05:11:29;;;;;;;0.70;0.67;;;;;;;;;;5036787;28;20537;-74
2023/07/05 05:13:57;;;;;;;0.70;0.70;;;;;;;;;;5021818;28;20442;-75
2023/07/05 05:16:24;;;;;;;0.80;0.80;;;;;;;;;;5043866;28;20440;-78
2023/07/05 05:18:51;;;;;;;2.67;2.47;;;;;;;;;;5046989;28;20468;-72
2023/07/05 05:21:17;;;;;;;0.70;0.60;;;;;;;;;;5038257;28;20464;-74
2023/07/05 05:23:44;;;;;;;0.80;0.80;;;;;;;;;;5039011;28;20833;-74
2023/07/05 05:26:11;;;;;;;0.80;0.80;;;;;;;;;;5042453;28;20475;-76
2023/07/05 05:28:38;;;;;;;0.80;0.73;;;;;;;;;;5044963;28;20432;-75
2023/07/05 05:31:07;;;;;;;1.30;1.20;;;;;;;;;;5047764;28;20543;-75
2023/07/05 05:33:35;;;;;;;0.70;0.70;;;;;;;;;;5042065;28;20450;-75
2023/07/05 05:36:02;;;;;;;0.70;0.63;;;;;;;;;;5050787;28;20454;-75
2023/07/05 05:38:29;;;;;;;0.80;0.77;;;;;;;;;;5041435;28;20478;-75
2023/07/05 05:41:00;;;;;;;0.70;0.70;;;;;;;;;;5045822;28;20451;-76
2023/07/05 05:43:26;;;;;;;0.70;0.70;;;;;;;;;;5042539;28;20436;-73
2023/07/05 05:45:53;;;;;;;0.70;0.60;;;;;;;;;;5045662;28;20461;-74
2023/07/05 05:48:21;;;;;;;0.70;0.70;;;;;;;;;;5041973;28;20475;-76
2023/07/05 05:50:48;;;;;;;0.70;0.60;;;;;;;;;;5046756;28;20561;-75
2023/07/05 05:53:15;;;;;;;0.70;0.70;;;;;;;;;;5047096;28;20567;-78
2023/07/05 05:55:43;;;;;;;2.70;1.00;;;;;;;;;;5046082;28;20483;-75
2023/07/05 05:58:09;;;;;;;0.80;0.80;;;;;;;;;;5039402;28;20473;-80
2023/07/05 06:00:37;;;;;;;0.80;0.70;;;;;;;;;;5046970;28;20439;-73
2023/07/05 06:03:06;;;;;;;0.70;0.70;;;;;;;;;;5040155;28;20454;-76
2023/07/05 06:05:34;;;;;;;0.80;0.80;;;;;;;;;;5040926;28;20424;-74
2023/07/05 06:08:01;;;;;;;0.70;0.70;;;;;;;;;;5040635;28;20469;-74
2023/07/05 06:10:27;;;;;;;0.90;0.90;;;;;;;;;;5043691;28;20474;-74
2023/07/05 06:12:54;;;;;;;0.70;0.70;;;;;;;;;;5040465;28;20466;-76
2023/07/05 06:15:20;;;;;;;0.70;0.70;;;;;;;;;;5042040;28;20445;-75
2023/07/05 06:17:48;;;;;;;0.80;0.70;;;;;;;;;;5040983;28;20439;-74
2023/07/05 06:20:15;;;;;;;0.80;0.70;;;;;;;;;;5047058;28;20486;-73
2023/07/05 06:22:43;;;;;;;0.80;0.80;;;;;;;;;;5041650;28;20467;-75
2023/07/05 06:25:13;;;;;;;0.70;0.70;;;;;;;;;;5041112;28;20802;-74
2023/07/05 06:27:40;;;;;;;0.70;0.60;;;;;;;;;;5028628;28;20443;-75
2023/07/05 06:30:07;;;;;;;0.70;0.70;;;;;;;;;;5046470;28;20442;-73
2023/07/05 06:32:34;;;;;;;0.70;0.70;;;;;;;;;;5037169;28;20451;-73
2023/07/05 06:35:02;;;;;;;0.70;0.70;;;;;;;;;;5043339;28;20432;-72
2023/07/05 06:37:28;;;;;;;0.70;0.70;;;;;;;;;;5039950;28;20471;-72
2023/07/05 06:39:56;;;;;;;0.80;0.70;;;;;;;;;;5026009;28;20901;-73
2023/07/05 06:42:23;;;;;;;0.70;0.70;;;;;;;;;;5040059;28;20447;-73
2023/07/05 06:44:57;;;;;;;0.70;0.60;;;;;;;;;;5047989;28;20440;-73
2023/07/05 06:47:24;;;;;;;0.73;0.70;;;;;;;;;;5045801;28;20444;-74
2023/07/05 06:49:50;;;;;;;0.80;0.80;;;;;;;;;;5046911;28;20434;-75
2023/07/05 06:52:18;;;;;;;0.80;0.80;;;;;;;;;;5043523;28;20475;-73
2023/07/05 06:54:44;;;;;;;0.70;0.70;;;;;;;;;;5046334;28;20436;-74
2023/07/05 06:57:12;;;;;;;0.70;0.60;;;;;;;;;;5029134;28;20444;-75
2023/07/05 06:59:43;;;;;;;0.70;0.60;;;;;;;;;;5053800;28;20468;-74
2023/07/05 07:02:10;;;;;;;0.70;0.70;;;;;;;;;;5053486;28;20499;-75
2023/07/05 07:04:38;;;;;;;0.70;0.70;;;;;;;;;;5040034;28;20958;-75
2023/07/05 07:07:06;;;;;;;0.70;0.60;;;;;;;;;;5046116;28;20974;-74
2023/07/05 07:09:33;;;;;;;0.70;0.70;;;;;;;;;;5046298;28;20446;-75
2023/07/05 07:12:00;;;;;;;0.80;0.70;;;;;;;;;;5048014;28;20483;-73
2023/07/05 07:14:28;;;;;;;0.73;0.70;;;;;;;;;;5041652;28;20434;-76
2023/07/05 07:16:55;;;;;;;0.70;0.70;;;;;;;;;;5050835;28;20440;-72
2023/07/05 07:19:22;;;;;;;0.80;0.80;;;;;;;;;;5039700;28;20560;-73
2023/07/05 07:21:49;;;;;;;0.70;0.60;;;;;;;;;;5048381;28;20547;-72
2023/07/05 07:24:15;;;;;;;0.80;0.80;;;;;;;;;;5043877;28;20435;-75
2023/07/05 07:26:42;;;;;;;0.80;0.70;;;;;;;;;;5053303;28;20442;-76
2023/07/05 07:29:10;;;;;;;0.70;0.60;;;;;;;;;;5048124;28;20443;-76
2023/07/05 07:31:38;;;;;;;0.70;0.70;;;;;;;;;;5049500;28;20436;-75
2023/07/05 07:34:07;;;;;;;0.70;0.70;;;;;;;;;;5024705;28;20468;-74
2023/07/05 07:36:35;;;;;;;0.70;0.70;;;;;;;;;;5042830;28;20478;-71
2023/07/05 07:39:02;;;;;;;0.70;0.70;;;;;;;;;;5041624;28;20475;-74
2023/07/05 07:41:31;;;;;;;0.80;0.80;;;;;;;;;;5041277;28;20883;-74
2023/07/05 07:44:02;;;;;;;0.80;0.80;;;;;;;;;;5044303;28;20436;-73
2023/07/05 07:46:29;;;;;;;0.70;0.67;;;;;;;;;;5030723;28;20792;-75
2023/07/05 07:48:59;;;;;;;0.70;0.70;;;;;;;;;;5039444;28;20931;-74
2023/07/05 07:51:27;;;;;;;0.70;0.60;;;;;;;;;;5042211;28;20478;-74
2023/07/05 07:54:01;;;;;;;0.80;0.80;;;;;;;;;;5043444;28;20434;-73
2023/07/05 07:56:29;;;;;;;0.70;0.70;;;;;;;;;;5040020;28;20441;-74
2023/07/05 07:58:56;;;;;;;0.70;0.60;;;;;;;;;;5042184;28;20467;-75
2023/07/05 08:01:23;;;;;;;0.80;0.77;;;;;;;;;;5047774;28;20465;-75
2023/07/05 08:03:50;;;;;;;0.80;0.80;;;;;;;;;;5037655;28;20454;-74
2023/07/05 08:06:19;;;;;;;0.70;0.70;;;;;;;;;;5042026;28;20450;-72
2023/07/05 08:08:46;;;;;;;0.80;0.70;;;;;;;;;;5041991;28;20460;-74
2023/07/05 08:11:14;;;;;;;0.70;0.60;;;;;;;;;;5043514;28;20438;-72
2023/07/05 08:13:41;;;;;;;0.70;0.60;;;;;;;;;;5040691;28;20440;-72
2023/07/05 08:16:08;;;;;;;0.70;0.60;;;;;;;;;;5042968;28;20436;-73
2023/07/05 08:18:34;;;;;;;0.70;0.67;;;;;;;;;;5041497;28;20451;-73
2023/07/05 08:21:01;;;;;;;0.73;0.70;;;;;;;;;;5038121;28;20446;-73
2023/07/05 08:23:30;;;;;;;0.77;0.70;;;;;;;;;;5025234;28;20553;-75
2023/07/05 08:25:56;;;;;;;0.70;0.70;;;;;;;;;;5042623;28;21017;-75
2023/07/05 08:28:24;;;;;;;0.70;0.60;;;;;;;;;;5038124;28;20788;-74
2023/07/05 08:30:54;;;;;;;0.80;0.80;;;;;;;;;;5047868;28;20442;-77
2023/07/05 08:33:21;;;;;;;0.70;0.70;;;;;;;;;;5042034;28;20457;-75
2023/07/05 08:35:48;;;;;;;0.70;0.60;;;;;;;;;;5045045;28;20438;-73
2023/07/05 08:38:18;;;;;;;0.73;0.70;;;;;;;;;;5044602;28;20836;-75
2023/07/05 08:40:50;;;;;;;0.73;0.70;;;;;;;;;;5043061;28;20471;-71
2023/07/05 08:43:25;;;;;;;0.80;0.70;;;;;;;;;;5038776;28;20925;-72
2023/07/05 08:45:56;;;;;;;0.70;0.60;;;;;;;;;;5046039;28;20447;-73
2023/07/05 08:48:24;;;;;;;0.70;0.70;;;;;;;;;;5043412;28;20435;-72
2023/07/05 08:50:54;;;;;;;0.80;0.70;;;;;;;;;;5041996;28;20442;-72
2023/07/05 08:53:47;;;;;;;0.73;0.70;;;;;;;;;;5041641;28;20817;-74
2023/07/05 08:56:20;;;;;;;0.70;0.70;;;;;;;;;;5041441;28;20442;-74
2023/07/05 08:58:51;;;;;;;0.70;0.67;;;;;;;;;;5040470;28;20429;-72
2023/07/05 09:01:19;;;;;;;0.70;0.60;;;;;;;;;;5042078;28;20868;-74
2023/07/05 09:03:47;;;;;;;0.80;0.80;;;;;;;;;;5038286;28;20808;-74
2023/07/05 09:06:20;;;;;;;0.80;0.70;;;;;;;;;;5047154;28;20491;-75
2023/07/05 09:08:55;;;;;;;0.80;0.70;;;;;;;;;;5038818;28;20455;-72
2023/07/05 09:11:25;;;;;;;0.80;0.73;;;;;;;;;;5036455;28;20483;-73
2023/07/05 09:13:57;;;;;;;0.70;0.70;;;;;;;;;;5039786;28;20436;-75
2023/07/05 09:16:29;;;;;;;0.80;0.73;;;;;;;;;;5040079;28;20440;-74
2023/07/05 09:19:01;;;;;;;0.70;0.67;;;;;;;;;;5041342;28;21000;-74
2023/07/05 09:21:31;;;;;;;0.80;0.80;;;;;;;;;;5036867;28;20501;-73
2023/07/05 09:24:03;;;;;;;0.70;0.60;;;;;;;;;;5041687;28;20461;-76
2023/07/05 09:26:34;;;;;;;0.80;0.70;;;;;;;;;;5044066;28;20445;-75
2023/07/05 09:29:06;;;;;;;0.70;0.60;;;;;;;;;;5042232;28;20432;-73
2023/07/05 09:31:33;;;;;;;0.73;0.70;;;;;;;;;;5047477;28;20430;-73
2023/07/05 09:34:07;;;;;;;0.70;0.60;;;;;;;;;;5048480;28;20447;-75
2023/07/05 09:36:34;;;;;;;0.80;0.73;;;;;;;;;;5046790;28;20485;-74
2023/07/05 09:39:12;;;;;;;0.77;0.70;;;;;;;;;;5044719;28;20440;-72
2023/07/05 09:41:42;;;;;;;0.77;0.70;;;;;;;;;;5040155;28;20795;-71
2023/07/05 09:44:09;;;;;;;0.80;0.80;;;;;;;;;;5041487;28;20464;-73
2023/07/05 09:46:36;;;;;;;0.80;0.70;;;;;;;;;;5039016;28;20440;-74
2023/07/05 09:49:08;;;;;;;0.70;0.70;;;;;;;;;;5046879;28;20447;-74
2023/07/05 09:51:35;;;;;;;0.80;0.70;;;;;;;;;;5036793;28;20546;-73
2023/07/05 09:54:04;;;;;;;0.70;0.70;;;;;;;;;;5044547;28;20445;-72
2023/07/05 09:56:32;;;;;;;0.80;0.77;;;;;;;;;;5025633;28;20444;-74
2023/07/05 09:59:12;;;;;;;0.70;0.70;;;;;;;;;;5039543;28;20447;-76
2023/07/05 10:01:40;;;;;;;0.80;0.70;;;;;;;;;;5054087;28;20417;-76
2023/07/05 10:04:08;;;;;;;0.70;0.60;;;;;;;;;;5047824;28;20428;-75
2023/07/05 10:06:37;;;;;;;0.80;0.73;;;;;;;;;;5039994;28;20436;-76
2023/07/05 10:09:11;;;;;;;0.70;0.70;;;;;;;;;;5040782;28;20432;-75
2023/07/05 10:11:42;;;;;;;0.70;0.60;;;;;;;;;;5041148;28;20483;-76
2023/07/05 10:14:14;;;;;;;0.70;0.60;;;;;;;;;;5038734;28;20424;-73
2023/07/05 10:16:48;;;;;;;0.80;0.80;;;;;;;;;;5039855;28;20419;-74
2023/07/05 10:19:28;;;;;;;0.70;0.70;;;;;;;;;;5046725;28;20394;-72
2023/07/05 10:22:04;;;;;;;0.77;0.70;;;;;;;;;;5043843;28;20509;-73
2023/07/05 10:24:32;;;;;;;0.70;0.70;;;;;;;;;;5032785;28;20533;-73
2023/07/05 10:27:01;;;;;;;0.80;0.70;;;;;;;;;;5047719;28;20451;-72
2023/07/05 10:29:30;;;;;;;10.27;1.20;;;;;;;;;;5044635;28;20523;-75
2023/07/05 10:32:00;;;;;;;1.33;1.23;;;;;;;;;;5042773;28;20428;-71
2023/07/05 10:34:27;;;;;;;0.70;0.70;;;;;;;;;;5042319;28;20432;-73
2023/07/05 10:36:54;;;;;;;0.77;0.70;;;;;;;;;;5044187;28;20460;-70
2023/07/05 10:39:23;;;;;;;0.70;0.60;;;;;;;;;;5043823;28;20447;-71
2023/07/05 10:41:51;;;;;;;4.20;1.03;;;;;;;;;;5044893;28;20538;-73
2023/07/05 10:44:22;;;;;;;1.40;1.13;;;;;;;;;;5042873;28;20431;-73
2023/07/05 10:46:50;;;;;;;0.70;0.60;;;;;;;;;;5045872;28;20404;-73
2023/07/05 10:49:17;;;;;;;0.70;0.60;;;;;;;;;;5048009;28;20411;-72
2023/07/05 10:51:47;;;;;;;1.00;0.90;;;;;;;;;;5041481;28;20422;-72
2023/07/05 10:54:21;;;;;;;0.80;0.70;;;;;;;;;;5043311;28;20444;-71
2023/07/05 10:56:48;;;;;;;0.90;0.90;;;;;;;;;;5048975;28;20435;-73
2023/07/05 10:59:20;;;;;;;0.70;0.60;;;;;;;;;;5043954;28;20423;-72
2023/07/05 11:01:49;;;;;;;0.80;0.70;;;;;;;;;;5042484;28;20522;-73
2023/07/05 11:04:20;;;;;;;0.70;0.60;;;;;;;;;;5045003;28;20403;-73
2023/07/05 11:06:47;;;;;;;0.70;0.70;;;;;;;;;;5045200;28;20544;-73
2023/07/05 11:09:14;;;;;;;0.70;0.60;;;;;;;;;;5039211;28;20443;-74
2023/07/05 11:11:42;;;;;;;0.70;0.60;;;;;;;;;;5045836;28;20415;-73
2023/07/05 11:14:12;;;;;;;0.80;0.70;;;;;;;;;;5038146;28;20443;-72
2023/07/05 11:16:40;;;;;;;0.70;0.70;;;;;;;;;;5041930;28;20662;-70
2023/07/05 11:19:10;;;;;;;0.70;0.70;;;;;;;;;;5042862;28;20437;-71
2023/07/05 11:21:39;;;;;;;0.80;0.70;;;;;;;;;;5040176;28;20472;-74
2023/07/05 11:24:07;;;;;;;0.70;0.60;;;;;;;;;;5042315;28;20409;-72
2023/07/05 11:26:35;;;;;;;0.80;0.80;;;;;;;;;;5042236;28;20441;-72
2023/07/05 11:29:17;;;;;;;0.70;0.60;;;;;;;;;;5042952;28;20413;-75
2023/07/05 11:31:58;;;;;;;0.70;0.60;;;;;;;;;;5038178;28;20419;-73
2023/07/05 11:34:32;;;;;;;0.70;0.70;;;;;;;;;;5038487;28;20436;-73
2023/07/05 11:37:13;;;;;;;0.80;0.70;;;;;;;;;;5044015;28;20467;-72
2023/07/05 11:39:42;;;;;;;0.80;0.70;;;;;;;;;;5041685;28;20484;-72
2023/07/05 11:42:31;;;;;;;0.90;0.73;;;;;;;;;;5040751;28;20798;-70
2023/07/05 11:45:13;;;;;;;0.70;0.60;;;;;;;;;;5039948;28;20475;-71
2023/07/05 11:47:44;;;;;;;0.70;0.70;;;;;;;;;;5045118;28;20435;-72
2023/07/05 11:50:13;;;;;;;0.80;0.70;;;;;;;;;;5042052;28;20911;-71
2023/07/05 11:52:42;;;;;;;0.70;0.60;;;;;;;;;;5048126;28;20478;-73
2023/07/05 11:55:13;;;;;;;0.80;0.80;;;;;;;;;;5043747;28;20444;-72
2023/07/05 11:57:52;;;;;;;0.90;0.80;;;;;;;;;;5040370;28;20432;-73
2023/07/05 12:00:27;;;;;;;0.80;0.70;;;;;;;;;;5046490;28;21044;-73
2023/07/05 12:02:55;;;;;;;0.70;0.60;;;;;;;;;;5041872;28;20449;-73
2023/07/05 12:05:24;;;;;;;0.80;0.70;;;;;;;;;;5041645;28;20436;-73
2023/07/05 12:07:54;;;;;;;0.70;0.70;;;;;;;;;;5040373;28;20435;-76
2023/07/05 12:10:24;;;;;;;0.90;0.90;;;;;;;;;;5042552;28;20546;-73
2023/07/05 12:12:50;;;;;;;0.77;0.63;;;;;;;;;;5037747;28;20448;-74
2023/07/05 12:15:17;;;;;;;0.70;0.60;;;;;;;;;;5049094;28;20460;-73
2023/07/05 12:17:44;;;;;;;0.70;0.60;;;;;;;;;;5042697;28;20452;-74
2023/07/05 12:20:21;;;;;;;0.73;0.63;;;;;;;;;;5044422;28;20973;-72
2023/07/05 12:22:48;;;;;;;0.70;0.60;;;;;;;;;;5038987;28;20433;-73
2023/07/05 12:25:14;;;;;;;0.77;0.70;;;;;;;;;;5041595;28;20470;-72
2023/07/05 12:27:42;;;;;;;0.70;0.70;;;;;;;;;;5048329;28;20911;-73
2023/07/05 12:30:16;;;;;;;0.70;0.60;;;;;;;;;;5048449;28;20407;-74
2023/07/05 12:32:49;;;;;;;0.80;0.73;;;;;;;;;;5040675;28;20477;-72
2023/07/05 12:35:17;;;;;;;0.80;0.70;;;;;;;;;;5045874;28;20940;-72
2023/07/05 12:37:43;;;;;;;0.80;0.70;;;;;;;;;;5040169;28;20461;-72
2023/07/05 12:40:13;;;;;;;0.80;0.70;;;;;;;;;;5041515;28;20445;-75
2023/07/05 12:42:49;;;;;;;0.90;0.90;;;;;;;;;;5044528;28;20439;-77
2023/07/05 12:45:17;;;;;;;0.80;0.80;;;;;;;;;;5039642;28;20854;-77
2023/07/05 12:47:44;;;;;;;0.70;0.70;;;;;;;;;;5041999;28;20412;-74
2023/07/05 12:50:17;;;;;;;0.80;0.80;;;;;;;;;;5041190;28;20435;-75
2023/07/05 12:52:47;;;;;;;0.80;0.70;;;;;;;;;;5038109;28;20530;-75
2023/07/05 12:55:24;;;;;;;0.70;0.70;;;;;;;;;;5030725;28;20811;-76
2023/07/05 12:57:52;;;;;;;0.87;0.87;;;;;;;;;;5041064;28;20427;-75
2023/07/05 13:00:23;;;;;;;0.77;0.77;;;;;;;;;;5044732;28;20472;-76
2023/07/05 13:02:54;;;;;;;0.77;0.67;;;;;;;;;;5033529;28;20518;-75
2023/07/05 13:05:23;;;;;;;0.70;0.60;;;;;;;;;;5043372;28;20451;-76
2023/07/05 13:07:52;;;;;;;0.80;0.70;;;;;;;;;;5041023;28;20836;-77
2023/07/05 13:10:20;;;;;;;0.70;0.60;;;;;;;;;;5028567;28;20806;-75
2023/07/05 13:12:48;;;;;;;0.70;0.60;;;;;;;;;;5045701;28;20477;-77
2023/07/05 13:15:16;;;;;;;0.70;0.60;;;;;;;;;;5044900;28;20530;-76
2023/07/05 13:17:45;;;;;;;0.70;0.50;;;;;;;;;;5044557;28;20436;-75
2023/07/05 13:20:14;;;;;;;0.80;0.70;;;;;;;;;;5044307;28;20883;-77
2023/07/05 13:22:42;;;;;;;0.80;0.70;;;;;;;;;;5038623;28;20496;-75
2023/07/05 13:25:27;;;;;;;0.70;0.60;;;;;;;;;;5031547;28;20820;-75
2023/07/05 13:27:58;;;;;;;0.80;0.60;;;;;;;;;;5049513;28;20439;-77
2023/07/05 13:30:30;;;;;;;0.80;0.70;;;;;;;;;;5044782;28;20452;-76
2023/07/05 13:33:00;;;;;;;0.77;0.60;;;;;;;;;;5021399;28;20803;-75
2023/07/05 13:35:31;;;;;;;0.80;0.67;;;;;;;;;;5031900;28;20458;-76
2023/07/05 13:37:59;;;;;;;1.80;0.83;;;;;;;;;;5048644;28;20500;-77
2023/07/05 13:40:50;;;;;;;0.80;0.70;;;;;;;;;;5050509;28;20834;-75
2023/07/05 13:43:17;;;;;;;0.70;0.70;;;;;;;;;;5045470;28;20488;-78
2023/07/05 13:45:48;;;;;;;0.70;0.60;;;;;;;;;;5052864;28;20437;-76
2023/07/05 13:48:16;;;;;;;0.70;0.60;;;;;;;;;;5053063;28;21281;-79
2023/07/05 13:50:43;;;;;;;0.70;0.60;;;;;;;;;;5048004;28;20419;-76
2023/07/05 13:53:16;;;;;;;0.80;0.80;;;;;;;;;;5045098;28;20467;-79
2023/07/05 13:55:43;;;;;;;1.00;0.90;;;;;;;;;;5043705;28;20927;-76
2023/07/05 13:58:12;;;;;;;0.70;0.60;;;;;;;;;;5040850;28;20422;-79
2023/07/05 14:00:40;;;;;;;0.80;0.70;;;;;;;;;;5038716;28;20475;-77
2023/07/05 14:03:08;;;;;;;0.90;0.90;;;;;;;;;;5048610;28;20484;-75
2023/07/05 14:05:39;;;;;;;0.80;0.73;;;;;;;;;;5042662;28;20440;-81
2023/07/05 14:08:11;;;;;;;4.27;0.93;;;;;;;;;;5043477;28;20526;-79
2023/07/05 14:10:40;;;;;;;0.70;0.60;;;;;;;;;;5037589;28;20532;-78
2023/07/05 14:13:13;;;;;;;0.70;0.60;;;;;;;;;;5027178;28;20459;-76
2023/07/05 14:15:42;;;;;;;0.70;0.60;;;;;;;;;;5032862;28;20789;-81
2023/07/05 14:18:14;;;;;;;0.80;0.60;;;;;;;;;;5024620;28;20485;-78
2023/07/05 14:20:41;;;;;;;0.70;0.60;;;;;;;;;;5038459;28;20444;-75
2023/07/05 14:23:11;;;;;;;1.00;1.00;;;;;;;;;;5045154;28;20470;-78
2023/07/05 14:25:41;;;;;;;2.90;1.20;;;;;;;;;;5044577;28;20800;-78
2023/07/05 14:28:09;;;;;;;0.70;0.70;;;;;;;;;;5043460;28;20982;-81
2023/07/05 14:30:39;;;;;;;0.80;0.80;;;;;;;;;;5050715;28;20856;-78
2023/07/05 14:33:06;;;;;;;0.70;0.60;;;;;;;;;;5038138;28;20429;-80
2023/07/05 14:35:34;;;;;;;0.70;0.60;;;;;;;;;;5029810;28;20448;-79
2023/07/05 14:38:05;;;;;;;0.70;0.60;;;;;;;;;;5037180;28;20464;-81
2023/07/05 14:40:32;;;;;;;0.80;0.67;;;;;;;;;;5040515;28;20447;-77
2023/07/05 14:43:00;;;;;;;0.70;0.70;;;;;;;;;;5043162;28;20440;-79
2023/07/05 14:45:30;;;;;;;0.80;0.70;;;;;;;;;;5040848;28;20436;-79
2023/07/05 14:47:57;;;;;;;0.70;0.60;;;;;;;;;;5041589;28;20534;-75
2023/07/05 14:50:25;;;;;;;0.77;0.60;;;;;;;;;;5044415;28;20448;-79
2023/07/05 14:52:54;;;;;;;0.80;0.70;;;;;;;;;;5044809;28;20450;-73